CST,Max TemperatureF,Mean TemperatureF,Min TemperatureF,Max Dew PointF,MeanDew PointF,Min DewpointF,Max Humidity, Mean Humidity, Min Humidity, Max Sea Level PressureIn, Mean Sea Level PressureIn, Min Sea Level PressureIn, Max VisibilityMiles, Mean VisibilityMiles, Min VisibilityMiles, Max Wind SpeedMPH, Mean Wind SpeedMPH, Max Gust SpeedMPH,PrecipitationIn, CloudCover, Events, WindDirDegrees
2013-1-1,27,17,7,19,13,7,95,87,75,30.40,30.29,30.19,10,6,2,9,4,,T,3,Snow,277
2013-1-2,36,23,9,29,20,5,93,79,64,30.37,30.24,30.15,10,8,1,17,10,,T,3,Snow,300
2013-1-3,31,18,4,19,15,5,95,79,61,30.51,30.42,30.35,10,10,10,13,7,,0.00,4,,284
2013-1-4,36,20,4,19,11,3,92,71,44,30.38,30.29,30.19,10,10,10,8,6,,0.00,0,,254
2013-1-5,40,25,10,26,18,7,88,71,55,30.36,30.22,30.10,10,10,10,17,10,25,0.00,0,,290
2013-1-6,42,29,16,27,20,11,78,67,47,30.42,30.29,30.08,10,10,10,14,7,18,0.00,0,,231
2013-1-7,42,31,19,26,23,19,92,73,53,30.07,30.02,29.96,10,10,9,17,8,24,0.00,0,,266
2013-1-8,47,31,14,30,22,12,96,78,50,30.27,30.03,29.89,10,10,7,13,4,,0.00,0,,276
2013-1-9,52,37,22,34,28,21,92,75,47,30.46,30.35,30.26,10,10,10,9,6,,0.00,0,,221
2013-1-10,39,34,29,38,35,29,100,97,86,30.27,29.87,29.63,10,4,0,10,3,,0.01,8,Fog-Rain,157
2013-1-11,60,42,24,38,31,18,100,73,26,29.92,29.56,29.29,10,6,1,25,13,36,0.00,5,,247
2013-1-12,24,18,11,8,7,5,84,65,51,30.27,30.14,29.93,10,10,10,17,12,28,0.00,0,,331
2013-1-13,26,17,7,8,5,2,84,69,44,30.43,30.34,30.27,10,10,10,12,8,17,0.00,0,,319
2013-1-14,30,18,6,13,8,3,84,69,45,30.53,30.43,30.36,10,10,10,7,4,,0.00,3,,219
2013-1-15,34,24,13,20,14,6,96,70,38,30.36,30.27,30.15,10,10,5,13,5,17,T,4,,251
2013-1-16,53,36,19,27,24,13,81,62,35,30.34,30.18,30.10,10,10,10,20,10,26,0.00,1,,305
2013-1-17,55,39,23,26,23,21,89,61,28,30.53,30.43,30.32,10,10,10,12,7,,0.00,0,,276
2013-1-18,61,46,30,27,23,18,79,55,19,30.29,30.11,29.99,10,10,10,12,9,18,0.00,0,,254
2013-1-19,60,44,27,24,21,20,75,48,22,30.30,30.15,29.99,10,10,10,16,9,25,0.00,0,,307
2013-1-20,36,28,20,26,21,18,96,81,66,30.48,30.34,30.22,10,10,10,12,5,,0.00,2,,65
2013-1-21,43,29,14,25,18,12,92,79,53,30.45,30.35,30.25,10,10,10,16,5,20,0.00,2,,181
2013-1-22,34,22,10,17,13,8,92,76,50,30.33,30.27,30.23,10,10,10,9,5,,0.00,0,,86
2013-1-23,45,31,16,26,21,15,85,70,43,30.44,30.27,30.18,10,10,10,13,5,,0.00,0,,34
2013-1-24,27,19,10,18,13,7,92,76,55,30.45,30.32,30.17,10,10,8,12,7,,0.00,3,,137
2013-1-25,54,38,22,25,23,19,88,60,31,30.30,30.23,30.17,10,10,7,15,6,,0.00,1,,249
2013-1-26,57,41,25,39,30,22,93,66,32,30.19,30.05,29.88,10,9,4,20,7,29,0.02,2,Rain,171
2013-1-27,52,40,28,42,34,28,100,95,69,29.86,29.75,29.67,8,3,0,14,6,18,0.02,3,Fog-Rain,12
2013-1-28,56,41,26,42,32,24,100,95,62,29.84,29.71,29.55,10,2,0,20,5,28,0.00,6,Fog,315
2013-1-29,39,35,31,35,30,28,100,89,70,29.81,29.72,29.64,10,5,0,22,14,28,0.04,7,Fog-Snow,351
2013-1-30,34,27,20,25,18,12,85,73,50,30.04,29.96,29.83,10,10,10,22,15,26,T,3,,303
2013-1-31,34,25,15,24,16,9,82,71,53,30.43,30.23,29.98,10,10,10,20,8,26,0.00,5,,344